^^
Station Historical Data
Daily Summary for January 28, 2018 Units:  English    Metric   Both
« Previous Day
Next Day »
Daily Weekly Monthly Yearly Custom
  High: Low: Average:
Temperature: TemperatureF °F 68.2 °F 79.5 °F
Dew Point: DewpointF °F 34.5 °F 42.5 °F
Humidity: Humidity% 16% 29%
Wind Speed: WindSpeedMPHmph 0.0mph 2.5mph
Wind Gust: WindSpeedGustMPHmph - -
Wind- - SSW
Pressure: PressureIn in 29.52 in -
Precipitation: 0.00 in    
Historical Graphs
 
 
Tabular Data for January 28, 2018
Time Temperature Dew Point Pressure Wind Wind Speed Wind Gust Humidity Rainfall Rate (Hourly) solar Conditions
TemperatureF °F DewpointF °F PressureIn in Calm     Humidity% HourlyPrecipIn in SolarRadiationWatts/m^2 W/m2 Conditions
00:02 69.4 °F 49.5 °F 29.69 in Calm     49% 0.00 in 0.0 W/m2
00:08 69.3 °F 49.3 °F 29.68 in Calm     49% 0.00 in 0.0 W/m2
00:13 69.1 °F 49.1 °F 29.68 in South 2.0 mph 2.0 mph 49% 0.00 in 0.0 W/m2
00:18 68.7 °F 49.3 °F 29.68 in Calm   2.0 mph 50% 0.00 in 0.0 W/m2
00:23 68.7 °F 49.8 °F 29.68 in SE 2.0 mph 4.0 mph 51% 0.00 in 0.0 W/m2
00:28 68.5 °F 49.1 °F 29.67 in Calm   1.0 mph 50% 0.00 in 0.0 W/m2
00:33 68.5 °F 48.0 °F 29.67 in SE 0.9 mph 3.0 mph 48% 0.00 in 0.0 W/m2
00:38 68.7 °F 45.3 °F 29.67 in Calm   1.0 mph 43% 0.00 in 0.0 W/m2
00:44 68.7 °F 44.8 °F 29.67 in Calm     42% 0.00 in 0.0 W/m2
00:49 69.1 °F 46.8 °F 29.67 in Calm     45% 0.00 in 0.0 W/m2
00:54 68.7 °F 44.8 °F 29.67 in Calm     42% 0.00 in 0.0 W/m2
00:59 68.7 °F 44.1 °F 29.67 in Calm     41% 0.00 in 0.0 W/m2
01:04 68.5 °F 43.9 °F 29.67 in Calm   1.0 mph 41% 0.00 in 0.0 W/m2
01:09 68.5 °F 43.9 °F 29.67 in Calm     41% 0.00 in 0.0 W/m2
01:14 68.4 °F 43.7 °F 29.67 in Calm     41% 0.00 in 0.0 W/m2
01:19 68.4 °F 43.7 °F 29.67 in Calm     41% 0.00 in 0.0 W/m2
01:25 68.2 °F 43.0 °F 29.67 in Calm   3.0 mph 40% 0.00 in 0.0 W/m2
01:30 68.2 °F 42.3 °F 29.67 in Calm     39% 0.00 in 0.0 W/m2
01:35 68.2 °F 43.0 °F 29.67 in Calm     40% 0.00 in 0.0 W/m2
01:40 68.2 °F 43.0 °F 29.67 in Calm     40% 0.00 in 0.0 W/m2
01:43 68.2 °F 43.0 °F 29.67 in Calm     40% 0.00 in 0.0 W/m2
01:48 68.2 °F 43.0 °F 29.67 in Calm     40% 0.00 in 0.0 W/m2
01:53 68.2 °F 42.3 °F 29.66 in Calm     39% 0.00 in 0.0 W/m2
01:58 68.2 °F 42.3 °F 29.66 in Calm   1.0 mph 39% 0.00 in 0.0 W/m2
02:03 68.5 °F 40.5 °F 29.66 in Calm   3.0 mph 36% 0.00 in 0.0 W/m2
02:09 69.1 °F 41.0 °F 29.66 in Calm   3.0 mph 36% 0.00 in 0.0 W/m2
02:14 69.6 °F 40.8 °F 29.66 in South 0.9 mph 2.0 mph 35% 0.00 in 0.0 W/m2
02:19 70.3 °F 40.6 °F 29.66 in Calm     34% 0.00 in 0.0 W/m2
02:24 70.9 °F 41.2 °F 29.66 in Calm   2.0 mph 34% 0.00 in 0.0 W/m2
02:29 71.1 °F 40.5 °F 29.66 in SSE 2.0 mph 3.0 mph 33% 0.00 in 0.0 W/m2
02:34 71.4 °F 40.1 °F 29.66 in Calm   2.0 mph 32% 0.00 in 0.0 W/m2
02:39 71.8 °F 39.6 °F 29.66 in Calm   2.0 mph 31% 0.00 in 0.0 W/m2
02:44 72.0 °F 40.5 °F 29.66 in Calm     32% 0.00 in 0.0 W/m2
02:49 72.1 °F 40.6 °F 29.67 in Calm     32% 0.00 in 0.0 W/m2
02:54 72.1 °F 41.4 °F 29.67 in Calm     33% 0.00 in 0.0 W/m2
03:00 72.0 °F 40.5 °F 29.67 in Calm     32% 0.00 in 0.0 W/m2
03:05 72.0 °F 40.5 °F 29.67 in Calm   1.0 mph 32% 0.00 in 0.0 W/m2
03:10 72.0 °F 39.7 °F 29.66 in Calm   2.0 mph 31% 0.00 in 0.0 W/m2
03:15 72.0 °F 37.9 °F 29.67 in South 2.0 mph 2.0 mph 29% 0.00 in 0.0 W/m2
03:20 72.1 °F 37.2 °F 29.67 in SE 2.9 mph 5.0 mph 28% 0.00 in 0.0 W/m2
03:25 72.7 °F 37.8 °F 29.67 in ESE 4.0 mph 6.0 mph 28% 0.00 in 0.0 W/m2
03:30 72.9 °F 37.8 °F 29.67 in ESE 6.0 mph 13.0 mph 28% 0.00 in 0.0 W/m2
03:35 73.2 °F 38.1 °F 29.67 in SSE 6.9 mph 12.0 mph 28% 0.00 in 0.0 W/m2
03:41 73.2 °F 38.1 °F 29.67 in SE 6.0 mph 8.0 mph 28% 0.00 in 0.0 W/m2
03:46 73.2 °F 38.1 °F 29.66 in SSE 4.0 mph 8.0 mph 28% 0.00 in 0.0 W/m2
03:51 73.2 °F 37.2 °F 29.66 in SE 2.0 mph 7.0 mph 27% 0.00 in 0.0 W/m2
03:56 73.2 °F 37.2 °F 29.66 in SE 2.9 mph 7.0 mph 27% 0.00 in 0.0 W/m2
04:01 73.2 °F 37.2 °F 29.66 in WSW 4.0 mph 8.0 mph 27% 0.00 in 0.0 W/m2
04:06 73.0 °F 37.0 °F 29.66 in ESE 2.0 mph 8.0 mph 27% 0.00 in 0.0 W/m2
04:11 73.0 °F 37.0 °F 29.66 in SE 11.0 mph 11.0 mph 27% 0.00 in 0.0 W/m2
04:16 73.0 °F 37.0 °F 29.66 in South 8.1 mph 10.0 mph 27% 0.00 in 0.0 W/m2
04:21 73.0 °F 37.0 °F 29.66 in SE 6.0 mph 8.0 mph 27% 0.00 in 0.0 W/m2
04:26 73.0 °F 37.0 °F 29.65 in SSE 2.0 mph 12.0 mph 27% 0.00 in 0.0 W/m2
04:31 73.0 °F 37.0 °F 29.65 in South 4.9 mph 11.0 mph 27% 0.00 in 0.0 W/m2
04:36 73.0 °F 37.0 °F 29.65 in SSE 2.0 mph 3.0 mph 27% 0.00 in 0.0 W/m2
04:42 72.9 °F 36.9 °F 29.65 in Calm   3.0 mph 27% 0.00 in 0.0 W/m2
04:47 72.9 °F 36.9 °F 29.65 in Calm   3.0 mph 27% 0.00 in 0.0 W/m2
04:52 72.7 °F 36.9 °F 29.65 in Calm   2.0 mph 27% 0.00 in 0.0 W/m2
04:57 72.7 °F 36.9 °F 29.65 in Calm   4.0 mph 27% 0.00 in 0.0 W/m2
05:02 72.7 °F 35.8 °F 29.65 in Calm   5.0 mph 26% 0.00 in 0.0 W/m2
05:07 72.7 °F 35.8 °F 29.65 in SSW 0.9 mph 8.0 mph 26% 0.00 in 0.0 W/m2
05:12 72.9 °F 36.0 °F 29.65 in Calm   1.0 mph 26% 0.00 in 0.0 W/m2
05:18 73.0 °F 35.1 °F 29.64 in ESE 2.0 mph 5.0 mph 25% 0.00 in 0.0 W/m2
05:23 73.0 °F 35.1 °F 29.64 in SE 0.9 mph 4.0 mph 25% 0.00 in 0.0 W/m2
05:28 73.2 °F 35.2 °F 29.65 in ESE 8.9 mph 10.0 mph 25% 0.00 in 0.0 W/m2
05:33 73.2 °F 35.2 °F 29.64 in SSE 4.0 mph 11.0 mph 25% 0.00 in 0.0 W/m2
05:38 73.6 °F 35.6 °F 29.64 in SSW 4.9 mph 7.0 mph 25% 0.00 in 0.0 W/m2
05:43 73.6 °F 35.6 °F 29.64 in South 6.0 mph 8.0 mph 25% 0.00 in 0.0 W/m2
05:48 73.6 °F 35.6 °F 29.64 in SE 4.9 mph 11.0 mph 25% 0.00 in 0.0 W/m2
05:53 73.6 °F 35.6 °F 29.64 in SSE 11.0 mph 11.0 mph 25% 0.00 in 0.0 W/m2
05:58 73.6 °F 35.6 °F 29.64 in SE 2.9 mph 13.0 mph 25% 0.00 in 0.0 W/m2
06:03 73.4 °F 35.4 °F 29.64 in SW 4.0 mph 12.0 mph 25% 0.00 in 0.0 W/m2
06:09 73.2 °F 35.2 °F 29.65 in South 2.0 mph 11.0 mph 25% 0.00 in 0.0 W/m2
06:14 73.0 °F 35.1 °F 29.65 in SSE 0.9 mph 10.0 mph 25% 0.00 in 0.0 W/m2
06:19 73.0 °F 35.1 °F 29.65 in SE 6.0 mph 9.0 mph 25% 0.00 in 0.0 W/m2
06:25 72.9 °F 35.1 °F 29.65 in SSW 2.9 mph 8.0 mph 25% 0.00 in 0.0 W/m2
06:31 72.7 °F 34.9 °F 29.66 in SSE 4.0 mph 9.0 mph 25% 0.00 in 0.0 W/m2
06:36 72.5 °F 34.7 °F 29.66 in SE 4.0 mph 10.0 mph 25% 0.00 in 7.0 W/m2
06:41 72.3 °F 34.5 °F 29.66 in ESE 4.9 mph 6.0 mph 25% 0.00 in 12.0 W/m2
06:46 72.3 °F 35.6 °F 29.67 in North 2.0 mph 2.0 mph 26% 0.00 in 19.0 W/m2
06:51 72.1 °F 36.3 °F 29.67 in Calm   2.0 mph 27% 0.00 in 26.0 W/m2
06:56 71.8 °F 36.0 °F 29.67 in NNW 0.9 mph 1.0 mph 27% 0.00 in 33.0 W/m2
07:01 71.4 °F 35.8 °F 29.67 in SW 2.9 mph 3.0 mph 27% 0.00 in 40.0 W/m2
07:07 71.4 °F 35.8 °F 29.68 in Calm   1.0 mph 27% 0.00 in 46.0 W/m2
07:12 71.8 °F 35.1 °F 29.68 in Calm   5.0 mph 26% 0.00 in 47.0 W/m2
07:17 71.8 °F 36.9 °F 29.68 in Calm   4.0 mph 28% 0.00 in 49.0 W/m2
07:22 72.0 °F 36.1 °F 29.68 in South 2.0 mph 5.0 mph 27% 0.00 in 51.0 W/m2
07:27 72.3 °F 36.5 °F 29.68 in SSW 0.9 mph 3.0 mph 27% 0.00 in 54.0 W/m2
07:32 72.5 °F 36.7 °F 29.68 in South 4.9 mph 7.0 mph 27% 0.00 in 60.0 W/m2
07:38 72.7 °F 36.9 °F 29.67 in SSW 0.9 mph 2.0 mph 27% 0.00 in 67.0 W/m2
07:43 72.9 °F 36.9 °F 29.67 in Calm   7.0 mph 27% 0.00 in 123.0 W/m2
07:48 73.0 °F 37.9 °F 29.67 in Calm   1.0 mph 28% 0.00 in 227.0 W/m2
07:53 73.4 °F 37.4 °F 29.67 in SSW 0.9 mph 5.0 mph 27% 0.00 in 72.0 W/m2
07:58 73.8 °F 37.8 °F 29.67 in East 2.9 mph 5.0 mph 27% 0.00 in 141.0 W/m2
08:03 73.8 °F 37.8 °F 29.67 in Calm   5.0 mph 27% 0.00 in 341.0 W/m2
08:08 74.1 °F 39.0 °F 29.67 in WSW 2.9 mph 3.0 mph 28% 0.00 in 353.0 W/m2
08:13 74.5 °F 38.3 °F 29.67 in Calm   3.0 mph 27% 0.00 in 341.0 W/m2
08:19 74.7 °F 38.5 °F 29.67 in South 2.9 mph 4.0 mph 27% 0.00 in 369.0 W/m2
08:24 75.0 °F 38.8 °F 29.67 in Calm   3.0 mph 27% 0.00 in 357.0 W/m2
08:30 75.7 °F 38.5 °F 29.67 in SW 2.0 mph 7.0 mph 26% 0.00 in 330.0 W/m2
08:35 76.5 °F 37.9 °F 29.67 in SE 0.9 mph 5.0 mph 25% 0.00 in 417.0 W/m2
08:40 77.0 °F 40.5 °F 29.67 in SSE 2.0 mph 5.0 mph 27% 0.00 in 485.0 W/m2
08:45 77.5 °F 39.0 °F 29.67 in South 2.0 mph 3.0 mph 25% 0.00 in 452.0 W/m2
08:50 77.9 °F 38.1 °F 29.67 in WSW 0.9 mph 4.0 mph 24% 0.00 in 519.0 W/m2
08:55 78.1 °F 39.4 °F 29.67 in WSW 0.9 mph 2.0 mph 25% 0.00 in 554.0 W/m2
09:00 78.6 °F 39.9 °F 29.67 in WSW 2.0 mph 4.0 mph 25% 0.00 in 568.0 W/m2
09:05 79.2 °F 39.2 °F 29.67 in Calm   3.0 mph 24% 0.00 in 485.0 W/m2
09:10 79.3 °F 38.3 °F 29.67 in WNW 0.9 mph 2.0 mph 23% 0.00 in 635.0 W/m2
09:15 79.7 °F 39.7 °F 29.67 in SSE 2.0 mph 5.0 mph 24% 0.00 in 510.0 W/m2
09:20 80.2 °F 39.0 °F 29.67 in SW 0.9 mph 4.0 mph 23% 0.00 in 258.0 W/m2
09:25 80.1 °F 38.8 °F 29.67 in Calm   1.0 mph 23% 0.00 in 638.0 W/m2
09:30 80.4 °F 40.3 °F 29.67 in Calm     24% 0.00 in 580.0 W/m2
09:36 81.0 °F 40.8 °F 29.67 in Calm   3.0 mph 24% 0.00 in 526.0 W/m2
09:41 81.9 °F 41.5 °F 29.67 in Calm   2.0 mph 24% 0.00 in 714.0 W/m2
09:46 82.8 °F 40.1 °F 29.67 in North 2.9 mph 5.0 mph 22% 0.00 in 742.0 W/m2
09:51 83.8 °F 39.7 °F 29.67 in North 2.0 mph 5.0 mph 21% 0.00 in 756.0 W/m2
09:56 84.6 °F 40.3 °F 29.67 in NNW 0.9 mph 5.0 mph 21% 0.00 in 772.0 W/m2
10:01 85.3 °F 39.7 °F 29.67 in NW 4.9 mph 6.0 mph 20% 0.00 in 791.0 W/m2
10:06 85.6 °F 39.9 °F 29.66 in North 4.9 mph 6.0 mph 20% 0.00 in 809.0 W/m2
10:11 85.8 °F 40.1 °F 29.66 in WNW 0.9 mph 5.0 mph 20% 0.00 in 828.0 W/m2
10:16 85.8 °F 40.1 °F 29.66 in NNW 4.9 mph 7.0 mph 20% 0.00 in 777.0 W/m2
10:22 86.2 °F 41.7 °F 29.66 in NNW 2.0 mph 4.0 mph 21% 0.00 in 853.0 W/m2
10:27 86.4 °F 40.6 °F 29.66 in NW 2.0 mph 6.0 mph 20% 0.00 in 821.0 W/m2
10:32 86.4 °F 40.6 °F 29.65 in Calm   4.0 mph 20% 0.00 in 831.0 W/m2
10:38 86.5 °F 43.2 °F 29.65 in Calm   2.0 mph 22% 0.00 in 877.0 W/m2
10:45 86.7 °F 43.3 °F 29.65 in WNW 0.9 mph 3.0 mph 22% 0.00 in 886.0 W/m2
10:50 87.1 °F 43.7 °F 29.66 in NNW 4.0 mph 8.0 mph 22% 0.00 in 786.0 W/m2
10:55 87.1 °F 42.4 °F 29.66 in Calm   4.0 mph 21% 0.00 in 914.0 W/m2
11:00 87.3 °F 42.6 °F 29.65 in West 2.0 mph 7.0 mph 21% 0.00 in 802.0 W/m2
11:05 87.8 °F 43.0 °F 29.65 in SW 2.0 mph 4.0 mph 21% 0.00 in 666.0 W/m2
11:10 88.0 °F 43.2 °F 29.65 in Calm   6.0 mph 21% 0.00 in 770.0 W/m2
11:15 88.0 °F 41.9 °F 29.65 in NW 2.9 mph 4.0 mph 20% 0.00 in 621.0 W/m2
11:21 87.8 °F 43.0 °F 29.65 in Calm   8.0 mph 21% 0.00 in 733.0 W/m2
11:26 88.2 °F 42.1 °F 29.64 in NNE 4.0 mph 7.0 mph 20% 0.00 in 782.0 W/m2
11:31 88.0 °F 43.2 °F 29.64 in North 4.9 mph 8.0 mph 21% 0.00 in 940.0 W/m2
11:36 88.2 °F 42.1 °F 29.64 in WSW 2.0 mph 6.0 mph 20% 0.00 in 772.0 W/m2
11:41 88.2 °F 42.1 °F 29.63 in West 2.0 mph 6.0 mph 20% 0.00 in 568.0 W/m2
11:46 88.3 °F 42.3 °F 29.64 in NW 4.0 mph 4.0 mph 20% 0.00 in 1076.0 W/m2
11:51 89.1 °F 42.8 °F 29.63 in West 4.9 mph 9.0 mph 20% 0.00 in 911.0 W/m2
11:56 89.6 °F 43.2 °F 29.63 in NNE 6.0 mph 8.0 mph 20% 0.00 in 1053.0 W/m2
12:01 90.0 °F 42.3 °F 29.63 in North 6.0 mph 9.0 mph 19% 0.00 in 953.0 W/m2
12:06 90.1 °F 43.7 °F 29.63 in NNW 4.9 mph 7.0 mph 20% 0.00 in 1039.0 W/m2
12:12 90.7 °F 42.8 °F 29.63 in WNW 0.9 mph 8.0 mph 19% 0.00 in 1076.0 W/m2
12:17 90.9 °F 43.0 °F 29.63 in NNE 4.9 mph 9.0 mph 19% 0.00 in 1046.0 W/m2
12:22 90.9 °F 43.0 °F 29.63 in NNW 4.0 mph 8.0 mph 19% 0.00 in 1028.0 W/m2
12:27 91.0 °F 41.7 °F 29.62 in NNW 6.0 mph 8.0 mph 18% 0.00 in 951.0 W/m2
12:32 90.9 °F 43.0 °F 29.62 in North 4.0 mph 5.0 mph 19% 0.00 in 1095.0 W/m2
12:37 91.0 °F 43.0 °F 29.62 in North 4.0 mph 5.0 mph 19% 0.00 in 1090.0 W/m2
12:42 91.6 °F 42.1 °F 29.62 in NNE 2.9 mph 9.0 mph 18% 0.00 in 1063.0 W/m2
12:47 91.9 °F 42.4 °F 29.62 in SW 0.9 mph 9.0 mph 18% 0.00 in 1069.0 W/m2
12:53 91.9 °F 42.4 °F 29.61 in ENE 4.0 mph 6.0 mph 18% 0.00 in 1074.0 W/m2
12:59 92.5 °F 42.8 °F 29.61 in NNW 2.9 mph 7.0 mph 18% 0.00 in 1093.0 W/m2
13:04 92.5 °F 41.4 °F 29.61 in SW 2.0 mph 6.0 mph 17% 0.00 in 919.0 W/m2
13:09 92.5 °F 41.4 °F 29.61 in NNE 6.0 mph 8.0 mph 17% 0.00 in 1153.0 W/m2
13:14 92.7 °F 41.5 °F 29.60 in Calm   7.0 mph 17% 0.00 in 1227.0 W/m2
13:19 93.0 °F 41.7 °F 29.60 in North 6.0 mph 6.0 mph 17% 0.00 in 582.0 W/m2
13:24 92.8 °F 41.5 °F 29.60 in NNW 2.9 mph 5.0 mph 17% 0.00 in 482.0 W/m2
13:29 92.7 °F 41.5 °F 29.60 in NNW 4.9 mph 5.0 mph 17% 0.00 in 501.0 W/m2
13:34 92.5 °F 41.4 °F 29.59 in South 2.0 mph 7.0 mph 17% 0.00 in 1382.0 W/m2
13:40 92.1 °F 41.0 °F 29.59 in NNE 2.9 mph 6.0 mph 17% 0.00 in 513.0 W/m2
13:46 92.1 °F 41.0 °F 29.59 in NNE 4.0 mph 4.0 mph 17% 0.00 in 1028.0 W/m2
13:51 92.7 °F 41.5 °F 29.59 in Calm   9.0 mph 17% 0.00 in 490.0 W/m2
13:56 92.7 °F 43.0 °F 29.59 in ENE 2.9 mph 6.0 mph 18% 0.00 in 448.0 W/m2
14:01 92.7 °F 41.5 °F 29.59 in NE 2.9 mph 7.0 mph 17% 0.00 in 450.0 W/m2
14:06 92.7 °F 41.5 °F 29.59 in West 0.9 mph 6.0 mph 17% 0.00 in 543.0 W/m2
14:11 92.5 °F 42.8 °F 29.58 in NNE 0.9 mph 3.0 mph 18% 0.00 in 512.0 W/m2
14:16 92.7 °F 41.5 °F 29.58 in ENE 6.0 mph 9.0 mph 17% 0.00 in 1171.0 W/m2
14:21 93.4 °F 42.1 °F 29.58 in NW 2.0 mph 9.0 mph 17% 0.00 in 1027.0 W/m2
14:26 94.1 °F 42.6 °F 29.58 in Calm   6.0 mph 17% 0.00 in 1132.0 W/m2
14:32 94.6 °F 41.5 °F 29.57 in Calm   5.0 mph 16% 0.00 in 1187.0 W/m2
14:37 94.5 °F 41.4 °F 29.57 in Calm   4.0 mph 16% 0.00 in 1234.0 W/m2
14:42 94.3 °F 41.2 °F 29.57 in Calm   1.0 mph 16% 0.00 in 902.0 W/m2
14:47 94.5 °F 41.4 °F 29.57 in WNW 6.9 mph 7.0 mph 16% 0.00 in 1157.0 W/m2
14:52 94.5 °F 41.4 °F 29.57 in SE 2.9 mph 4.0 mph 16% 0.00 in 272.0 W/m2
14:57 94.1 °F 41.0 °F 29.57 in NW 0.9 mph 5.0 mph 16% 0.00 in 322.0 W/m2
15:02 93.9 °F 41.0 °F 29.56 in Calm   5.0 mph 16% 0.00 in 932.0 W/m2
15:07 94.5 °F 43.0 °F 29.56 in ENE 0.9 mph 9.0 mph 17% 0.00 in 1086.0 W/m2
15:13 94.8 °F 41.7 °F 29.56 in NNE 6.9 mph 7.0 mph 16% 0.00 in 315.0 W/m2
15:18 94.8 °F 43.2 °F 29.55 in Calm   8.0 mph 17% 0.00 in 1114.0 W/m2
15:23 94.6 °F 41.5 °F 29.55 in ENE 2.0 mph 6.0 mph 16% 0.00 in 295.0 W/m2
15:28 94.1 °F 42.6 °F 29.55 in Calm   4.0 mph 17% 0.00 in 223.0 W/m2
15:33 93.4 °F 42.1 °F 29.55 in NE 4.0 mph 9.0 mph 17% 0.00 in 199.0 W/m2
15:38 92.3 °F 41.2 °F 29.55 in NE 4.0 mph 6.0 mph 17% 0.00 in 183.0 W/m2
15:43 91.8 °F 42.3 °F 29.54 in ESE 2.9 mph 5.0 mph 18% 0.00 in 185.0 W/m2
15:48 91.4 °F 41.9 °F 29.54 in East 2.0 mph 5.0 mph 18% 0.00 in 186.0 W/m2
15:53 91.2 °F 41.7 °F 29.54 in NNE 0.9 mph 3.0 mph 18% 0.00 in 178.0 W/m2
15:59 91.0 °F 41.7 °F 29.54 in WSW 0.9 mph 5.0 mph 18% 0.00 in 179.0 W/m2
16:04 90.7 °F 41.4 °F 29.53 in WNW 2.0 mph 3.0 mph 18% 0.00 in 193.0 W/m2
16:09 90.1 °F 42.3 °F 29.53 in Calm   3.0 mph 19% 0.00 in 192.0 W/m2
16:14 90.1 °F 42.3 °F 29.53 in SW 2.0 mph 6.0 mph 19% 0.00 in 617.0 W/m2
16:19 91.0 °F 41.7 °F 29.53 in Calm   3.0 mph 18% 0.00 in 780.0 W/m2
16:24 91.8 °F 42.3 °F 29.53 in West 2.9 mph 6.0 mph 18% 0.00 in 160.0 W/m2
16:29 91.8 °F 42.3 °F 29.52 in West 2.9 mph 4.0 mph 18% 0.00 in 127.0 W/m2
16:34 91.0 °F 41.7 °F 29.52 in Calm   2.0 mph 18% 0.00 in 209.0 W/m2
16:39 90.7 °F 41.4 °F 29.53 in WSW 2.9 mph 6.0 mph 18% 0.00 in 135.0 W/m2
16:44 90.7 °F 41.4 °F 29.52 in Calm   3.0 mph 18% 0.00 in 107.0 W/m2
16:50 90.7 °F 41.4 °F 29.52 in West 2.9 mph 3.0 mph 18% 0.00 in 104.0 W/m2
16:55 90.3 °F 41.0 °F 29.52 in West 8.1 mph 8.1 mph 18% 0.00 in 86.0 W/m2
17:00 89.8 °F 42.1 °F 29.52 in WNW 0.9 mph 2.0 mph 19% 0.00 in 77.0 W/m2
17:05 89.4 °F 41.7 °F 29.53 in WSW 4.0 mph 9.0 mph 19% 0.00 in 67.0 W/m2
17:10 88.5 °F 41.0 °F 29.53 in WSW 0.9 mph 10.0 mph 19% 0.00 in 79.0 W/m2
17:15 88.0 °F 41.9 °F 29.53 in WSW 2.9 mph 7.0 mph 20% 0.00 in 72.0 W/m2
17:20 87.4 °F 41.4 °F 29.53 in South 6.0 mph 11.0 mph 20% 0.00 in 84.0 W/m2
17:25 86.7 °F 42.1 °F 29.53 in SSW 4.0 mph 13.0 mph 21% 0.00 in 79.0 W/m2
17:30 86.2 °F 42.8 °F 29.53 in SW 4.0 mph 11.0 mph 22% 0.00 in 76.0 W/m2
17:36 86.0 °F 42.8 °F 29.53 in West 2.0 mph 9.0 mph 22% 0.00 in 77.0 W/m2
17:41 85.8 °F 42.6 °F 29.53 in WSW 4.0 mph 8.0 mph 22% 0.00 in 88.0 W/m2
17:46 85.8 °F 41.4 °F 29.53 in WNW 6.9 mph 9.0 mph 21% 0.00 in 100.0 W/m2
17:51 86.0 °F 42.8 °F 29.53 in SW 2.9 mph 8.0 mph 22% 0.00 in 98.0 W/m2
17:56 86.0 °F 42.8 °F 29.53 in WSW 2.9 mph 8.0 mph 22% 0.00 in 88.0 W/m2
18:01 86.0 °F 41.5 °F 29.53 in West 8.1 mph 11.0 mph 21% 0.00 in 86.0 W/m2
18:06 85.8 °F 42.6 °F 29.53 in West 2.0 mph 7.0 mph 22% 0.00 in 83.0 W/m2
18:11 85.8 °F 42.6 °F 29.53 in West 6.9 mph 8.0 mph 22% 0.00 in 60.0 W/m2
18:17 85.8 °F 41.4 °F 29.53 in Calm   7.0 mph 21% 0.00 in 46.0 W/m2
18:22 85.8 °F 41.4 °F 29.54 in WSW 4.0 mph 8.0 mph 21% 0.00 in 40.0 W/m2
18:27 85.8 °F 41.4 °F 29.54 in Calm   7.0 mph 21% 0.00 in 28.0 W/m2
18:32 85.8 °F 41.4 °F 29.54 in SW 2.9 mph 6.0 mph 21% 0.00 in 25.0 W/m2
18:37 85.6 °F 41.2 °F 29.55 in WSW 8.1 mph 9.0 mph 21% 0.00 in 21.0 W/m2
18:42 85.5 °F 41.0 °F 29.55 in WSW 4.9 mph 5.0 mph 21% 0.00 in 18.0 W/m2
18:47 85.5 °F 41.0 °F 29.55 in South 2.0 mph 5.0 mph 21% 0.00 in 14.0 W/m2
18:52 85.3 °F 41.0 °F 29.55 in WSW 0.9 mph 3.0 mph 21% 0.00 in 14.0 W/m2
18:57 85.3 °F 41.0 °F 29.56 in Calm   3.0 mph 21% 0.00 in 14.0 W/m2
19:02 85.3 °F 42.1 °F 29.56 in Calm   5.0 mph 22% 0.00 in 16.0 W/m2
19:08 85.1 °F 41.9 °F 29.56 in Calm   2.0 mph 22% 0.00 in 12.0 W/m2
19:13 85.1 °F 41.9 °F 29.57 in SW 0.9 mph 1.0 mph 22% 0.00 in 11.0 W/m2
19:18 84.9 °F 40.6 °F 29.57 in SSW 0.9 mph 4.0 mph 21% 0.00 in 12.0 W/m2
19:23 84.9 °F 41.9 °F 29.57 in Calm   3.0 mph 22% 0.00 in 7.0 W/m2
19:28 84.9 °F 40.6 °F 29.57 in WSW 0.9 mph 6.0 mph 21% 0.00 in 9.0 W/m2
19:33 84.7 °F 39.2 °F 29.58 in SSW 2.0 mph 9.0 mph 20% 0.00 in 7.0 W/m2
19:38 84.6 °F 39.0 °F 29.58 in WSW 2.0 mph 7.0 mph 20% 0.00 in 0.0 W/m2
19:43 84.6 °F 37.8 °F 29.59 in South 6.0 mph 8.0 mph 19% 0.00 in 0.0 W/m2
19:49 84.2 °F 36.1 °F 29.59 in WSW 6.9 mph 9.0 mph 18% 0.00 in 0.0 W/m2
19:54 83.7 °F 35.6 °F 29.60 in Calm   10.0 mph 18% 0.00 in 0.0 W/m2
19:59 83.5 °F 36.9 °F 29.60 in West 6.0 mph 10.0 mph 19% 0.00 in 0.0 W/m2
20:05 83.1 °F 36.7 °F 29.62 in West 2.0 mph 9.0 mph 19% 0.00 in 0.0 W/m2
20:10 82.9 °F 36.5 °F 29.62 in West 4.9 mph 5.0 mph 19% 0.00 in 0.0 W/m2
20:15 82.6 °F 37.4 °F 29.63 in WNW 2.0 mph 4.0 mph 20% 0.00 in 0.0 W/m2
20:20 82.4 °F 45.1 °F 29.64 in NNW 4.0 mph 8.0 mph 27% 0.00 in 0.0 W/m2
20:25 81.9 °F 48.2 °F 29.64 in NNW 2.9 mph 3.0 mph 31% 0.00 in 0.0 W/m2
20:30 81.1 °F 49.3 °F 29.65 in NNW 0.9 mph 7.0 mph 33% 0.00 in 0.0 W/m2
20:35 80.2 °F 50.2 °F 29.65 in NW 4.9 mph 13.0 mph 35% 0.00 in 0.0 W/m2
20:40 79.5 °F 50.9 °F 29.65 in NW 2.9 mph 11.0 mph 37% 0.00 in 0.0 W/m2
20:45 79.2 °F 51.4 °F 29.66 in North 4.9 mph 7.0 mph 38% 0.00 in 0.0 W/m2
20:51 78.4 °F 53.4 °F 29.66 in NNE 4.9 mph 10.0 mph 42% 0.00 in 0.0 W/m2
20:56 77.5 °F 55.8 °F 29.67 in NNE 8.1 mph 13.0 mph 47% 0.00 in 0.0 W/m2
21:01 76.5 °F 55.9 °F 29.67 in NNW 4.9 mph 15.0 mph 49% 0.00 in 0.0 W/m2
21:06 75.7 °F 55.8 °F 29.67 in NW 4.9 mph 13.0 mph 50% 0.00 in 0.0 W/m2
21:11 75.6 °F 55.6 °F 29.66 in NNW 8.1 mph 11.0 mph 50% 0.00 in 0.0 W/m2
21:16 75.0 °F 55.0 °F 29.67 in NNE 8.1 mph 10.0 mph 50% 0.00 in 0.0 W/m2
21:21 74.7 °F 55.4 °F 29.67 in North 4.9 mph 14.0 mph 51% 0.00 in 0.0 W/m2
21:26 74.5 °F 55.8 °F 29.67 in NE 6.9 mph 13.0 mph 52% 0.00 in 0.0 W/m2
21:31 73.9 °F 55.8 °F 29.67 in North 2.9 mph 13.0 mph 53% 0.00 in 0.0 W/m2
21:36 73.6 °F 55.9 °F 29.68 in NW 4.0 mph 15.0 mph 54% 0.00 in 0.0 W/m2
21:42 73.0 °F 55.9 °F 29.68 in NNW 6.0 mph 11.0 mph 55% 0.00 in 0.0 W/m2
21:47 72.7 °F 56.1 °F 29.69 in West 6.0 mph 9.0 mph 56% 0.00 in 0.0 W/m2
21:52 72.3 °F 56.3 °F 29.69 in NNW 8.9 mph 11.0 mph 57% 0.00 in 0.0 W/m2
21:57 71.8 °F 56.7 °F 29.69 in NNW 2.9 mph 9.0 mph 59% 0.00 in 0.0 W/m2
22:02 71.4 °F 56.8 °F 29.69 in NNE 4.9 mph 13.0 mph 60% 0.00 in 0.0 W/m2
22:06 71.1 °F 56.5 °F 29.69 in WNW 6.9 mph 12.0 mph 60% 0.00 in 0.0 W/m2
22:11 70.9 °F 56.8 °F 29.69 in NW 2.9 mph 10.0 mph 61% 0.00 in 0.0 W/m2
22:16 70.5 °F 56.8 °F 29.70 in NW 6.9 mph 11.0 mph 62% 0.00 in 0.0 W/m2
22:22 70.3 °F 57.2 °F 29.70 in NNW 6.0 mph 6.0 mph 63% 0.00 in 0.0 W/m2
22:27 70.2 °F 57.0 °F 29.70 in NW 4.0 mph 8.0 mph 63% 0.00 in 0.0 W/m2
22:32 70.0 °F 56.8 °F 29.70 in NE 4.9 mph 8.0 mph 63% 0.00 in 0.0 W/m2
22:38 70.0 °F 57.2 °F 29.70 in WNW 2.9 mph 10.0 mph 64% 0.00 in 0.0 W/m2
22:43 69.6 °F 56.8 °F 29.70 in NNW 6.0 mph 11.0 mph 64% 0.00 in 0.0 W/m2
22:48 69.6 °F 57.4 °F 29.70 in NNW 2.9 mph 7.0 mph 65% 0.00 in 0.0 W/m2
22:54 69.4 °F 57.2 °F 29.71 in NNW 2.9 mph 8.0 mph 65% 0.00 in 0.0 W/m2
22:59 69.4 °F 57.2 °F 29.70 in Calm   5.0 mph 65% 0.00 in 0.0 W/m2
23:04 69.4 °F 57.2 °F 29.71 in Calm   6.0 mph 65% 0.00 in 0.0 W/m2
23:09 69.3 °F 56.5 °F 29.71 in North 6.9 mph 7.0 mph 64% 0.00 in 0.0 W/m2
23:14 69.1 °F 56.5 °F 29.72 in NNW 0.9 mph 3.0 mph 64% 0.00 in 0.0 W/m2
23:19 69.1 °F 56.5 °F 29.71 in Calm   4.0 mph 64% 0.00 in 0.0 W/m2
23:25 68.9 °F 55.8 °F 29.71 in Calm   3.0 mph 63% 0.00 in 0.0 W/m2
23:30 68.7 °F 55.2 °F 29.71 in NW 4.9 mph 6.0 mph 62% 0.00 in 0.0 W/m2
23:35 68.5 °F 55.0 °F 29.71 in Calm   4.0 mph 62% 0.00 in 0.0 W/m2
23:40 68.5 °F 55.0 °F 29.71 in WSW 0.9 mph 2.0 mph 62% 0.00 in 0.0 W/m2
23:45 68.4 °F 54.9 °F 29.71 in Calm   1.0 mph 62% 0.00 in 0.0 W/m2
23:50 68.4 °F 54.9 °F 29.71 in Calm   1.0 mph 62% 0.00 in 0.0 W/m2
23:55 68.2 °F 54.7 °F 29.71 in Calm   2.0 mph 62% 0.00 in 0.0 W/m2
Olympia, Windhoek, Namibia
Compliments of Weather Underground - 3.25 mb